sensor_id;sensor_type;location;lat;lon;timestamp;P1;durP1;ratioP1;P2;durP2;ratioP2
2408;SDS011;8463;48.094;7.970;2023-04-25T00:00:18;3.43;;;2.13;;
2408;SDS011;8463;48.094;7.970;2023-04-25T00:02:46;2.43;;;1.83;;
2408;SDS011;8463;48.094;7.970;2023-04-25T00:05:12;4.73;;;2.57;;
2408;SDS011;8463;48.094;7.970;2023-04-25T00:07:40;2.03;;;1.77;;
2408;SDS011;8463;48.094;7.970;2023-04-25T00:10:07;2.53;;;2.10;;
2408;SDS011;8463;48.094;7.970;2023-04-25T00:12:34;3.73;;;2.13;;
2408;SDS011;8463;48.094;7.970;2023-04-25T00:15:04;2.43;;;2.13;;
2408;SDS011;8463;48.094;7.970;2023-04-25T00:17:30;6.03;;;2.63;;
2408;SDS011;8463;48.094;7.970;2023-04-25T00:20:00;3.50;;;2.37;;
2408;SDS011;8463;48.094;7.970;2023-04-25T00:22:29;3.97;;;2.10;;
2408;SDS011;8463;48.094;7.970;2023-04-25T00:24:55;4.03;;;2.00;;
2408;SDS011;8463;48.094;7.970;2023-04-25T00:27:24;3.40;;;2.10;;
2408;SDS011;8463;48.094;7.970;2023-04-25T00:29:50;2.93;;;2.20;;
2408;SDS011;8463;48.094;7.970;2023-04-25T00:32:16;3.63;;;2.13;;
2408;SDS011;8463;48.094;7.970;2023-04-25T00:34:44;3.57;;;2.20;;
2408;SDS011;8463;48.094;7.970;2023-04-25T00:37:10;5.27;;;2.50;;
2408;SDS011;8463;48.094;7.970;2023-04-25T00:39:38;2.30;;;2.10;;
2408;SDS011;8463;48.094;7.970;2023-04-25T00:42:07;3.50;;;2.60;;
2408;SDS011;8463;48.094;7.970;2023-04-25T00:44:33;2.27;;;2.00;;
2408;SDS011;8463;48.094;7.970;2023-04-25T00:47:01;2.23;;;2.03;;
2408;SDS011;8463;48.094;7.970;2023-04-25T00:49:28;3.00;;;2.33;;
2408;SDS011;8463;48.094;7.970;2023-04-25T00:51:53;2.50;;;2.30;;
2408;SDS011;8463;48.094;7.970;2023-04-25T00:54:20;4.43;;;2.50;;
2408;SDS011;8463;48.094;7.970;2023-04-25T00:56:45;4.70;;;1.70;;
2408;SDS011;8463;48.094;7.970;2023-04-25T00:59:11;5.03;;;2.37;;
2408;SDS011;8463;48.094;7.970;2023-04-25T01:01:38;3.40;;;1.57;;
2408;SDS011;8463;48.094;7.970;2023-04-25T01:04:04;2.37;;;1.87;;
2408;SDS011;8463;48.094;7.970;2023-04-25T01:06:30;4.10;;;2.10;;
2408;SDS011;8463;48.094;7.970;2023-04-25T01:09:02;3.07;;;1.80;;
2408;SDS011;8463;48.094;7.970;2023-04-25T01:11:29;2.80;;;1.70;;
2408;SDS011;8463;48.094;7.970;2023-04-25T01:13:55;2.07;;;1.70;;
2408;SDS011;8463;48.094;7.970;2023-04-25T01:16:21;4.27;;;1.60;;
2408;SDS011;8463;48.094;7.970;2023-04-25T01:18:48;2.70;;;1.90;;
2408;SDS011;8463;48.094;7.970;2023-04-25T01:21:15;6.03;;;3.10;;
2408;SDS011;8463;48.094;7.970;2023-04-25T01:23:41;5.00;;;2.07;;
2408;SDS011;8463;48.094;7.970;2023-04-25T01:26:08;4.93;;;1.77;;
2408;SDS011;8463;48.094;7.970;2023-04-25T01:28:35;5.63;;;2.47;;
2408;SDS011;8463;48.094;7.970;2023-04-25T01:31:02;2.63;;;1.97;;
2408;SDS011;8463;48.094;7.970;2023-04-25T01:33:29;4.50;;;2.03;;
2408;SDS011;8463;48.094;7.970;2023-04-25T01:35:54;3.60;;;2.83;;
2408;SDS011;8463;48.094;7.970;2023-04-25T01:38:22;7.10;;;2.50;;
2408;SDS011;8463;48.094;7.970;2023-04-25T01:40:48;2.60;;;2.40;;
2408;SDS011;8463;48.094;7.970;2023-04-25T01:43:16;3.53;;;2.03;;
2408;SDS011;8463;48.094;7.970;2023-04-25T01:45:42;2.30;;;1.70;;
2408;SDS011;8463;48.094;7.970;2023-04-25T01:48:11;2.50;;;2.30;;
2408;SDS011;8463;48.094;7.970;2023-04-25T01:50:39;3.33;;;1.93;;
2408;SDS011;8463;48.094;7.970;2023-04-25T01:53:05;2.57;;;2.00;;
2408;SDS011;8463;48.094;7.970;2023-04-25T01:55:31;2.00;;;1.80;;
2408;SDS011;8463;48.094;7.970;2023-04-25T01:57:57;5.20;;;1.80;;
2408;SDS011;8463;48.094;7.970;2023-04-25T02:00:23;3.70;;;2.10;;
2408;SDS011;8463;48.094;7.970;2023-04-25T02:02:49;4.27;;;2.30;;
2408;SDS011;8463;48.094;7.970;2023-04-25T02:05:16;2.43;;;2.20;;
2408;SDS011;8463;48.094;7.970;2023-04-25T02:07:42;2.80;;;1.80;;
2408;SDS011;8463;48.094;7.970;2023-04-25T02:10:13;3.20;;;2.40;;
2408;SDS011;8463;48.094;7.970;2023-04-25T02:12:39;5.17;;;2.37;;
2408;SDS011;8463;48.094;7.970;2023-04-25T02:15:05;3.57;;;2.33;;
2408;SDS011;8463;48.094;7.970;2023-04-25T02:17:31;4.17;;;1.87;;
2408;SDS011;8463;48.094;7.970;2023-04-25T02:19:57;2.43;;;2.10;;
2408;SDS011;8463;48.094;7.970;2023-04-25T02:22:23;3.20;;;2.13;;
2408;SDS011;8463;48.094;7.970;2023-04-25T02:24:48;2.53;;;2.30;;
2408;SDS011;8463;48.094;7.970;2023-04-25T02:27:14;2.33;;;2.10;;
2408;SDS011;8463;48.094;7.970;2023-04-25T02:29:40;2.07;;;1.90;;
2408;SDS011;8463;48.094;7.970;2023-04-25T02:32:05;3.47;;;2.87;;
2408;SDS011;8463;48.094;7.970;2023-04-25T02:34:31;2.13;;;1.93;;
2408;SDS011;8463;48.094;7.970;2023-04-25T02:36:57;4.13;;;2.30;;
2408;SDS011;8463;48.094;7.970;2023-04-25T02:39:26;8.03;;;2.50;;
2408;SDS011;8463;48.094;7.970;2023-04-25T02:41:52;4.27;;;2.30;;
2408;SDS011;8463;48.094;7.970;2023-04-25T02:44:18;4.03;;;1.90;;
2408;SDS011;8463;48.094;7.970;2023-04-25T02:46:47;2.67;;;2.47;;
2408;SDS011;8463;48.094;7.970;2023-04-25T02:49:13;2.00;;;1.70;;
2408;SDS011;8463;48.094;7.970;2023-04-25T02:51:38;3.70;;;2.67;;
2408;SDS011;8463;48.094;7.970;2023-04-25T02:54:04;2.40;;;2.20;;
2408;SDS011;8463;48.094;7.970;2023-04-25T02:56:31;5.27;;;2.50;;
2408;SDS011;8463;48.094;7.970;2023-04-25T02:59:02;3.00;;;2.70;;
2408;SDS011;8463;48.094;7.970;2023-04-25T03:01:28;3.27;;;2.97;;
2408;SDS011;8463;48.094;7.970;2023-04-25T03:03:56;2.43;;;2.27;;
2408;SDS011;8463;48.094;7.970;2023-04-25T03:06:22;2.33;;;2.07;;
2408;SDS011;8463;48.094;7.970;2023-04-25T03:08:47;13.50;;;2.70;;
2408;SDS011;8463;48.094;7.970;2023-04-25T03:11:15;2.33;;;2.13;;
2408;SDS011;8463;48.094;7.970;2023-04-25T03:13:41;3.50;;;2.00;;
2408;SDS011;8463;48.094;7.970;2023-04-25T03:16:07;3.43;;;2.50;;
2408;SDS011;8463;48.094;7.970;2023-04-25T03:18:38;2.97;;;2.60;;
2408;SDS011;8463;48.094;7.970;2023-04-25T03:21:04;3.10;;;2.50;;
2408;SDS011;8463;48.094;7.970;2023-04-25T03:23:30;2.90;;;2.60;;
2408;SDS011;8463;48.094;7.970;2023-04-25T03:25:55;2.90;;;2.27;;
2408;SDS011;8463;48.094;7.970;2023-04-25T03:28:21;3.97;;;2.60;;
2408;SDS011;8463;48.094;7.970;2023-04-25T03:30:47;2.47;;;2.27;;
2408;SDS011;8463;48.094;7.970;2023-04-25T03:33:12;5.63;;;2.90;;
2408;SDS011;8463;48.094;7.970;2023-04-25T03:35:38;2.40;;;2.20;;
2408;SDS011;8463;48.094;7.970;2023-04-25T03:38:07;5.20;;;2.43;;
2408;SDS011;8463;48.094;7.970;2023-04-25T03:40:33;6.33;;;2.67;;
2408;SDS011;8463;48.094;7.970;2023-04-25T03:42:59;4.00;;;3.60;;
2408;SDS011;8463;48.094;7.970;2023-04-25T03:45:24;3.63;;;2.30;;
2408;SDS011;8463;48.094;7.970;2023-04-25T03:47:50;5.13;;;2.40;;
2408;SDS011;8463;48.094;7.970;2023-04-25T03:50:16;2.83;;;2.53;;
2408;SDS011;8463;48.094;7.970;2023-04-25T03:52:44;5.93;;;3.50;;
2408;SDS011;8463;48.094;7.970;2023-04-25T03:55:10;5.30;;;3.40;;
2408;SDS011;8463;48.094;7.970;2023-04-25T03:57:35;4.93;;;3.43;;
2408;SDS011;8463;48.094;7.970;2023-04-25T04:00:01;3.33;;;3.03;;
2408;SDS011;8463;48.094;7.970;2023-04-25T04:02:31;2.73;;;2.53;;
2408;SDS011;8463;48.094;7.970;2023-04-25T04:04:58;3.40;;;2.87;;
2408;SDS011;8463;48.094;7.970;2023-04-25T04:07:23;5.67;;;3.40;;
2408;SDS011;8463;48.094;7.970;2023-04-25T04:09:49;7.73;;;3.27;;
2408;SDS011;8463;48.094;7.970;2023-04-25T04:12:14;3.43;;;2.83;;
2408;SDS011;8463;48.094;7.970;2023-04-25T04:14:40;6.00;;;3.50;;
2408;SDS011;8463;48.094;7.970;2023-04-25T04:17:07;3.00;;;2.40;;
2408;SDS011;8463;48.094;7.970;2023-04-25T04:19:33;3.10;;;2.73;;
2408;SDS011;8463;48.094;7.970;2023-04-25T04:21:58;3.77;;;2.57;;
2408;SDS011;8463;48.094;7.970;2023-04-25T04:24:24;4.27;;;2.90;;
2408;SDS011;8463;48.094;7.970;2023-04-25T04:26:50;5.73;;;5.23;;
2408;SDS011;8463;48.094;7.970;2023-04-25T04:29:17;5.40;;;3.20;;
2408;SDS011;8463;48.094;7.970;2023-04-25T04:31:54;2.90;;;2.70;;
2408;SDS011;8463;48.094;7.970;2023-04-25T04:34:26;3.87;;;2.80;;
2408;SDS011;8463;48.094;7.970;2023-04-25T04:36:52;4.67;;;3.20;;
2408;SDS011;8463;48.094;7.970;2023-04-25T04:39:17;10.10;;;4.20;;
2408;SDS011;8463;48.094;7.970;2023-04-25T04:41:43;4.20;;;3.80;;
2408;SDS011;8463;48.094;7.970;2023-04-25T04:44:09;4.33;;;2.93;;
2408;SDS011;8463;48.094;7.970;2023-04-25T04:46:36;4.80;;;3.50;;
2408;SDS011;8463;48.094;7.970;2023-04-25T04:49:06;4.90;;;3.00;;
2408;SDS011;8463;48.094;7.970;2023-04-25T04:51:36;4.60;;;3.73;;
2408;SDS011;8463;48.094;7.970;2023-04-25T04:54:02;4.07;;;3.37;;
2408;SDS011;8463;48.094;7.970;2023-04-25T04:56:31;5.13;;;2.80;;
2408;SDS011;8463;48.094;7.970;2023-04-25T04:58:57;6.80;;;3.17;;
2408;SDS011;8463;48.094;7.970;2023-04-25T05:01:23;6.67;;;4.10;;
2408;SDS011;8463;48.094;7.970;2023-04-25T05:03:51;3.60;;;2.90;;
2408;SDS011;8463;48.094;7.970;2023-04-25T05:06:20;5.83;;;3.53;;
2408;SDS011;8463;48.094;7.970;2023-04-25T05:08:46;4.50;;;3.67;;
2408;SDS011;8463;48.094;7.970;2023-04-25T05:11:11;3.87;;;3.00;;
2408;SDS011;8463;48.094;7.970;2023-04-25T05:13:39;4.50;;;2.90;;
2408;SDS011;8463;48.094;7.970;2023-04-25T05:16:05;2.93;;;2.63;;
2408;SDS011;8463;48.094;7.970;2023-04-25T05:18:30;5.30;;;3.00;;
2408;SDS011;8463;48.094;7.970;2023-04-25T05:20:59;8.40;;;3.93;;
2408;SDS011;8463;48.094;7.970;2023-04-25T05:23:25;9.03;;;4.37;;
2408;SDS011;8463;48.094;7.970;2023-04-25T05:25:52;5.37;;;3.20;;
2408;SDS011;8463;48.094;7.970;2023-04-25T05:28:20;4.23;;;2.70;;
2408;SDS011;8463;48.094;7.970;2023-04-25T05:30:46;4.23;;;3.83;;
2408;SDS011;8463;48.094;7.970;2023-04-25T05:33:12;3.13;;;2.87;;
2408;SDS011;8463;48.094;7.970;2023-04-25T05:35:37;3.83;;;3.03;;
2408;SDS011;8463;48.094;7.970;2023-04-25T05:38:03;4.47;;;2.73;;
2408;SDS011;8463;48.094;7.970;2023-04-25T05:40:31;5.77;;;2.87;;
2408;SDS011;8463;48.094;7.970;2023-04-25T05:42:57;4.33;;;4.03;;
2408;SDS011;8463;48.094;7.970;2023-04-25T05:45:23;4.93;;;3.60;;
2408;SDS011;8463;48.094;7.970;2023-04-25T05:47:48;7.57;;;5.10;;
2408;SDS011;8463;48.094;7.970;2023-04-25T05:50:14;4.77;;;3.60;;
2408;SDS011;8463;48.094;7.970;2023-04-25T05:52:40;10.57;;;7.47;;
2408;SDS011;8463;48.094;7.970;2023-04-25T05:55:06;5.30;;;3.10;;
2408;SDS011;8463;48.094;7.970;2023-04-25T05:57:32;4.43;;;3.70;;
2408;SDS011;8463;48.094;7.970;2023-04-25T05:59:57;5.20;;;3.60;;
2408;SDS011;8463;48.094;7.970;2023-04-25T06:02:23;5.17;;;3.23;;
2408;SDS011;8463;48.094;7.970;2023-04-25T06:04:49;6.53;;;4.60;;
2408;SDS011;8463;48.094;7.970;2023-04-25T06:07:16;5.33;;;2.77;;
2408;SDS011;8463;48.094;7.970;2023-04-25T06:09:45;4.37;;;2.80;;
2408;SDS011;8463;48.094;7.970;2023-04-25T06:12:11;7.20;;;3.13;;
2408;SDS011;8463;48.094;7.970;2023-04-25T06:14:37;3.10;;;2.77;;
2408;SDS011;8463;48.094;7.970;2023-04-25T06:17:03;2.93;;;2.53;;
2408;SDS011;8463;48.094;7.970;2023-04-25T06:19:33;2.73;;;2.20;;
2408;SDS011;8463;48.094;7.970;2023-04-25T06:21:59;2.60;;;1.80;;
2408;SDS011;8463;48.094;7.970;2023-04-25T06:24:27;2.90;;;1.83;;
2408;SDS011;8463;48.094;7.970;2023-04-25T06:26:53;3.83;;;2.30;;
2408;SDS011;8463;48.094;7.970;2023-04-25T06:29:19;4.17;;;3.07;;
2408;SDS011;8463;48.094;7.970;2023-04-25T06:31:45;2.93;;;2.63;;
2408;SDS011;8463;48.094;7.970;2023-04-25T06:34:11;3.57;;;1.80;;
2408;SDS011;8463;48.094;7.970;2023-04-25T06:36:36;1.60;;;1.30;;
2408;SDS011;8463;48.094;7.970;2023-04-25T06:39:02;1.17;;;1.00;;
2408;SDS011;8463;48.094;7.970;2023-04-25T06:41:30;0.80;;;0.80;;
2408;SDS011;8463;48.094;7.970;2023-04-25T06:43:59;1.20;;;0.70;;
2408;SDS011;8463;48.094;7.970;2023-04-25T06:46:25;1.73;;;0.90;;
2408;SDS011;8463;48.094;7.970;2023-04-25T06:48:50;2.27;;;1.10;;
2408;SDS011;8463;48.094;7.970;2023-04-25T06:51:16;2.83;;;1.40;;
2408;SDS011;8463;48.094;7.970;2023-04-25T06:53:41;0.80;;;0.70;;
2408;SDS011;8463;48.094;7.970;2023-04-25T06:56:12;3.07;;;0.77;;
2408;SDS011;8463;48.094;7.970;2023-04-25T06:58:38;0.63;;;0.50;;
2408;SDS011;8463;48.094;7.970;2023-04-25T07:01:03;1.60;;;0.77;;
2408;SDS011;8463;48.094;7.970;2023-04-25T07:03:29;1.03;;;0.80;;
2408;SDS011;8463;48.094;7.970;2023-04-25T07:05:55;0.60;;;0.60;;
2408;SDS011;8463;48.094;7.970;2023-04-25T07:08:26;0.60;;;0.50;;
2408;SDS011;8463;48.094;7.970;2023-04-25T07:10:54;0.60;;;0.60;;
2408;SDS011;8463;48.094;7.970;2023-04-25T07:13:26;0.63;;;0.53;;
2408;SDS011;8463;48.094;7.970;2023-04-25T07:15:51;1.10;;;0.87;;
2408;SDS011;8463;48.094;7.970;2023-04-25T07:18:17;1.53;;;1.00;;
2408;SDS011;8463;48.094;7.970;2023-04-25T07:20:42;1.03;;;0.60;;
2408;SDS011;8463;48.094;7.970;2023-04-25T07:23:11;1.83;;;0.50;;
2408;SDS011;8463;48.094;7.970;2023-04-25T07:25:37;1.00;;;0.83;;
2408;SDS011;8463;48.094;7.970;2023-04-25T07:28:02;1.20;;;0.97;;
2408;SDS011;8463;48.094;7.970;2023-04-25T07:30:28;7.67;;;3.80;;
2408;SDS011;8463;48.094;7.970;2023-04-25T07:32:54;8.37;;;4.70;;
2408;SDS011;8463;48.094;7.970;2023-04-25T07:35:26;4.40;;;2.63;;
2408;SDS011;8463;48.094;7.970;2023-04-25T07:37:54;2.87;;;2.00;;
2408;SDS011;8463;48.094;7.970;2023-04-25T07:40:26;3.60;;;2.63;;
2408;SDS011;8463;48.094;7.970;2023-04-25T07:42:51;2.10;;;1.90;;
2408;SDS011;8463;48.094;7.970;2023-04-25T07:45:17;5.27;;;4.43;;
2408;SDS011;8463;48.094;7.970;2023-04-25T07:47:43;5.97;;;3.10;;
2408;SDS011;8463;48.094;7.970;2023-04-25T07:50:14;3.50;;;1.87;;
2408;SDS011;8463;48.094;7.970;2023-04-25T07:52:40;3.20;;;1.90;;
2408;SDS011;8463;48.094;7.970;2023-04-25T07:55:06;3.20;;;2.33;;
2408;SDS011;8463;48.094;7.970;2023-04-25T07:57:32;1.73;;;1.63;;
2408;SDS011;8463;48.094;7.970;2023-04-25T08:00:00;3.13;;;2.30;;
2408;SDS011;8463;48.094;7.970;2023-04-25T08:02:26;2.70;;;2.10;;
2408;SDS011;8463;48.094;7.970;2023-04-25T08:04:53;4.60;;;2.27;;
2408;SDS011;8463;48.094;7.970;2023-04-25T08:07:18;6.80;;;3.97;;
2408;SDS011;8463;48.094;7.970;2023-04-25T08:09:53;5.67;;;2.90;;
2408;SDS011;8463;48.094;7.970;2023-04-25T08:12:19;3.20;;;2.30;;
2408;SDS011;8463;48.094;7.970;2023-04-25T08:14:45;2.40;;;2.03;;
2408;SDS011;8463;48.094;7.970;2023-04-25T08:17:12;4.77;;;2.77;;
2408;SDS011;8463;48.094;7.970;2023-04-25T08:19:38;3.77;;;2.97;;
2408;SDS011;8463;48.094;7.970;2023-04-25T08:22:04;3.73;;;3.03;;
2408;SDS011;8463;48.094;7.970;2023-04-25T08:24:33;4.30;;;2.27;;
2408;SDS011;8463;48.094;7.970;2023-04-25T08:26:58;2.63;;;2.43;;
2408;SDS011;8463;48.094;7.970;2023-04-25T08:29:24;1.87;;;1.73;;
2408;SDS011;8463;48.094;7.970;2023-04-25T08:31:55;2.17;;;1.77;;
2408;SDS011;8463;48.094;7.970;2023-04-25T08:34:21;2.80;;;2.00;;
2408;SDS011;8463;48.094;7.970;2023-04-25T08:36:47;3.40;;;2.00;;
2408;SDS011;8463;48.094;7.970;2023-04-25T08:39:12;2.77;;;2.13;;
2408;SDS011;8463;48.094;7.970;2023-04-25T08:41:40;2.73;;;2.17;;
2408;SDS011;8463;48.094;7.970;2023-04-25T08:44:06;2.73;;;2.30;;
2408;SDS011;8463;48.094;7.970;2023-04-25T08:46:38;2.30;;;2.10;;
2408;SDS011;8463;48.094;7.970;2023-04-25T08:49:05;1.93;;;1.73;;
2408;SDS011;8463;48.094;7.970;2023-04-25T08:51:35;2.40;;;1.90;;
2408;SDS011;8463;48.094;7.970;2023-04-25T08:54:13;2.43;;;1.50;;
2408;SDS011;8463;48.094;7.970;2023-04-25T08:56:49;1.63;;;1.53;;
2408;SDS011;8463;48.094;7.970;2023-04-25T08:59:14;2.37;;;2.17;;
2408;SDS011;8463;48.094;7.970;2023-04-25T09:01:40;2.40;;;2.20;;
2408;SDS011;8463;48.094;7.970;2023-04-25T09:04:06;2.00;;;1.90;;
2408;SDS011;8463;48.094;7.970;2023-04-25T09:06:31;1.57;;;1.47;;
2408;SDS011;8463;48.094;7.970;2023-04-25T09:09:05;2.20;;;2.00;;
2408;SDS011;8463;48.094;7.970;2023-04-25T09:11:32;3.40;;;2.50;;
2408;SDS011;8463;48.094;7.970;2023-04-25T09:17:05;2.13;;;1.47;;
2408;SDS011;8463;48.094;7.970;2023-04-25T09:19:39;2.10;;;1.53;;
2408;SDS011;8463;48.094;7.970;2023-04-25T09:22:06;2.37;;;1.23;;
2408;SDS011;8463;48.094;7.970;2023-04-25T09:27:07;2.07;;;1.97;;
2408;SDS011;8463;48.094;7.970;2023-04-25T09:29:35;1.70;;;1.33;;
2408;SDS011;8463;48.094;7.970;2023-04-25T09:34:47;1.60;;;1.50;;
2408;SDS011;8463;48.094;7.970;2023-04-25T09:37:21;1.37;;;1.27;;
2408;SDS011;8463;48.094;7.970;2023-04-25T09:39:51;2.60;;;1.80;;
2408;SDS011;8463;48.094;7.970;2023-04-25T09:42:21;1.80;;;1.27;;
2408;SDS011;8463;48.094;7.970;2023-04-25T09:44:49;2.40;;;1.87;;
2408;SDS011;8463;48.094;7.970;2023-04-25T09:47:22;1.40;;;1.30;;
2408;SDS011;8463;48.094;7.970;2023-04-25T09:49:50;2.70;;;1.67;;
2408;SDS011;8463;48.094;7.970;2023-04-25T09:52:18;1.70;;;1.60;;
2408;SDS011;8463;48.094;7.970;2023-04-25T09:54:48;1.67;;;1.57;;
2408;SDS011;8463;48.094;7.970;2023-04-25T09:59:50;2.30;;;2.10;;
2408;SDS011;8463;48.094;7.970;2023-04-25T10:02:18;1.80;;;1.70;;
2408;SDS011;8463;48.094;7.970;2023-04-25T10:04:50;3.90;;;2.27;;
2408;SDS011;8463;48.094;7.970;2023-04-25T10:07:23;5.70;;;2.17;;
2408;SDS011;8463;48.094;7.970;2023-04-25T10:09:54;1.57;;;1.47;;
2408;SDS011;8463;48.094;7.970;2023-04-25T10:12:27;1.97;;;1.87;;
2408;SDS011;8463;48.094;7.970;2023-04-25T10:14:54;2.30;;;1.90;;
2408;SDS011;8463;48.094;7.970;2023-04-25T10:17:21;1.60;;;1.23;;
2408;SDS011;8463;48.094;7.970;2023-04-25T10:19:48;1.63;;;1.53;;
2408;SDS011;8463;48.094;7.970;2023-04-25T10:22:16;2.83;;;1.83;;
2408;SDS011;8463;48.094;7.970;2023-04-25T10:24:46;2.03;;;1.50;;
2408;SDS011;8463;48.094;7.970;2023-04-25T10:27:12;3.00;;;2.07;;
2408;SDS011;8463;48.094;7.970;2023-04-25T10:29:38;2.50;;;1.83;;
2408;SDS011;8463;48.094;7.970;2023-04-25T10:32:07;2.57;;;1.80;;
2408;SDS011;8463;48.094;7.970;2023-04-25T10:34:45;2.30;;;2.07;;
2408;SDS011;8463;48.094;7.970;2023-04-25T10:37:13;2.13;;;2.00;;
2408;SDS011;8463;48.094;7.970;2023-04-25T10:39:39;1.60;;;1.20;;
2408;SDS011;8463;48.094;7.970;2023-04-25T10:42:08;1.63;;;1.53;;
2408;SDS011;8463;48.094;7.970;2023-04-25T10:44:34;1.60;;;1.43;;
2408;SDS011;8463;48.094;7.970;2023-04-25T10:47:02;2.30;;;2.00;;
2408;SDS011;8463;48.094;7.970;2023-04-25T10:49:34;2.57;;;1.87;;
2408;SDS011;8463;48.094;7.970;2023-04-25T10:55:03;2.90;;;1.60;;
2408;SDS011;8463;48.094;7.970;2023-04-25T10:57:45;1.90;;;1.70;;
2408;SDS011;8463;48.094;7.970;2023-04-25T11:00:19;2.33;;;1.50;;
2408;SDS011;8463;48.094;7.970;2023-04-25T11:02:51;2.17;;;1.73;;
2408;SDS011;8463;48.094;7.970;2023-04-25T11:08:07;2.07;;;1.87;;
2408;SDS011;8463;48.094;7.970;2023-04-25T11:10:37;2.23;;;1.30;;
2408;SDS011;8463;48.094;7.970;2023-04-25T11:13:05;1.80;;;1.70;;
2408;SDS011;8463;48.094;7.970;2023-04-25T11:15:38;3.80;;;1.90;;
2408;SDS011;8463;48.094;7.970;2023-04-25T11:18:04;2.80;;;1.87;;
2408;SDS011;8463;48.094;7.970;2023-04-25T11:20:31;3.80;;;1.80;;
2408;SDS011;8463;48.094;7.970;2023-04-25T11:22:59;2.50;;;2.10;;
2408;SDS011;8463;48.094;7.970;2023-04-25T11:25:25;4.03;;;2.40;;
2408;SDS011;8463;48.094;7.970;2023-04-25T11:27:55;1.70;;;1.60;;
2408;SDS011;8463;48.094;7.970;2023-04-25T11:30:22;2.63;;;1.80;;
2408;SDS011;8463;48.094;7.970;2023-04-25T11:32:49;2.80;;;1.50;;
2408;SDS011;8463;48.094;7.970;2023-04-25T11:35:15;3.60;;;1.67;;
2408;SDS011;8463;48.094;7.970;2023-04-25T11:37:43;2.53;;;2.03;;
2408;SDS011;8463;48.094;7.970;2023-04-25T11:40:09;2.50;;;2.30;;
2408;SDS011;8463;48.094;7.970;2023-04-25T11:42:39;2.37;;;1.37;;
2408;SDS011;8463;48.094;7.970;2023-04-25T11:45:08;2.40;;;1.70;;
2408;SDS011;8463;48.094;7.970;2023-04-25T11:47:34;2.73;;;1.90;;
2408;SDS011;8463;48.094;7.970;2023-04-25T11:50:04;3.20;;;2.23;;
2408;SDS011;8463;48.094;7.970;2023-04-25T11:52:55;2.93;;;1.70;;
2408;SDS011;8463;48.094;7.970;2023-04-25T11:55:21;2.17;;;1.83;;
2408;SDS011;8463;48.094;7.970;2023-04-25T11:57:47;2.80;;;2.07;;
2408;SDS011;8463;48.094;7.970;2023-04-25T12:00:16;1.80;;;1.70;;
2408;SDS011;8463;48.094;7.970;2023-04-25T12:02:51;1.53;;;1.37;;
2408;SDS011;8463;48.094;7.970;2023-04-25T12:05:25;2.03;;;1.57;;
2408;SDS011;8463;48.094;7.970;2023-04-25T12:08:14;2.03;;;1.83;;
2408;SDS011;8463;48.094;7.970;2023-04-25T12:10:44;2.10;;;1.90;;
2408;SDS011;8463;48.094;7.970;2023-04-25T12:13:23;1.70;;;1.60;;
2408;SDS011;8463;48.094;7.970;2023-04-25T12:15:50;1.93;;;1.50;;
2408;SDS011;8463;48.094;7.970;2023-04-25T12:18:18;1.77;;;1.67;;
2408;SDS011;8463;48.094;7.970;2023-04-25T12:20:53;1.80;;;1.70;;
2408;SDS011;8463;48.094;7.970;2023-04-25T12:23:30;2.47;;;2.23;;
2408;SDS011;8463;48.094;7.970;2023-04-25T12:25:56;1.77;;;1.67;;
2408;SDS011;8463;48.094;7.970;2023-04-25T12:28:28;2.13;;;1.90;;
2408;SDS011;8463;48.094;7.970;2023-04-25T12:30:59;1.73;;;1.63;;
2408;SDS011;8463;48.094;7.970;2023-04-25T12:33:29;2.40;;;2.20;;
2408;SDS011;8463;48.094;7.970;2023-04-25T12:35:59;2.47;;;2.17;;
2408;SDS011;8463;48.094;7.970;2023-04-25T12:38:29;2.60;;;2.03;;
2408;SDS011;8463;48.094;7.970;2023-04-25T12:40:56;2.20;;;1.90;;
2408;SDS011;8463;48.094;7.970;2023-04-25T12:43:28;2.03;;;1.93;;
2408;SDS011;8463;48.094;7.970;2023-04-25T12:45:54;2.27;;;2.07;;
2408;SDS011;8463;48.094;7.970;2023-04-25T12:48:21;2.00;;;1.90;;
2408;SDS011;8463;48.094;7.970;2023-04-25T12:51:00;3.30;;;2.37;;
2408;SDS011;8463;48.094;7.970;2023-04-25T12:53:30;2.73;;;2.13;;
2408;SDS011;8463;48.094;7.970;2023-04-25T12:55:56;1.77;;;1.63;;
2408;SDS011;8463;48.094;7.970;2023-04-25T12:58:22;1.13;;;0.90;;
2408;SDS011;8463;48.094;7.970;2023-04-25T13:00:51;1.23;;;0.80;;
2408;SDS011;8463;48.094;7.970;2023-04-25T13:03:22;0.80;;;0.70;;
2408;SDS011;8463;48.094;7.970;2023-04-25T13:05:48;0.77;;;0.70;;
2408;SDS011;8463;48.094;7.970;2023-04-25T13:08:18;0.80;;;0.80;;
2408;SDS011;8463;48.094;7.970;2023-04-25T13:10:44;0.73;;;0.53;;
2408;SDS011;8463;48.094;7.970;2023-04-25T13:13:10;1.30;;;0.97;;
2408;SDS011;8463;48.094;7.970;2023-04-25T13:15:35;0.80;;;0.80;;
2408;SDS011;8463;48.094;7.970;2023-04-25T13:18:02;4.00;;;1.10;;
2408;SDS011;8463;48.094;7.970;2023-04-25T13:20:29;1.53;;;1.43;;
2408;SDS011;8463;48.094;7.970;2023-04-25T13:22:55;1.57;;;1.37;;
2408;SDS011;8463;48.094;7.970;2023-04-25T13:25:24;1.00;;;0.80;;
2408;SDS011;8463;48.094;7.970;2023-04-25T13:27:49;2.47;;;1.33;;
2408;SDS011;8463;48.094;7.970;2023-04-25T13:30:24;2.50;;;1.43;;
2408;SDS011;8463;48.094;7.970;2023-04-25T13:32:50;3.07;;;1.53;;
2408;SDS011;8463;48.094;7.970;2023-04-25T13:35:16;1.17;;;1.07;;
2408;SDS011;8463;48.094;7.970;2023-04-25T13:37:41;1.33;;;1.20;;
2408;SDS011;8463;48.094;7.970;2023-04-25T13:40:08;1.53;;;1.43;;
2408;SDS011;8463;48.094;7.970;2023-04-25T13:42:36;1.30;;;1.13;;
2408;SDS011;8463;48.094;7.970;2023-04-25T13:45:03;1.37;;;1.00;;
2408;SDS011;8463;48.094;7.970;2023-04-25T13:47:31;1.77;;;1.03;;
2408;SDS011;8463;48.094;7.970;2023-04-25T13:49:57;1.47;;;1.17;;
2408;SDS011;8463;48.094;7.970;2023-04-25T13:52:22;1.17;;;0.97;;
2408;SDS011;8463;48.094;7.970;2023-04-25T13:54:51;0.90;;;0.70;;
2408;SDS011;8463;48.094;7.970;2023-04-25T13:57:18;0.90;;;0.67;;
2408;SDS011;8463;48.094;7.970;2023-04-25T13:59:44;0.97;;;0.70;;
2408;SDS011;8463;48.094;7.970;2023-04-25T14:02:11;1.03;;;0.93;;
2408;SDS011;8463;48.094;7.970;2023-04-25T14:04:37;0.90;;;0.90;;
2408;SDS011;8463;48.094;7.970;2023-04-25T14:07:14;1.10;;;1.00;;
2408;SDS011;8463;48.094;7.970;2023-04-25T14:09:43;1.63;;;0.70;;
2408;SDS011;8463;48.094;7.970;2023-04-25T14:12:10;2.13;;;1.30;;
2408;SDS011;8463;48.094;7.970;2023-04-25T14:14:38;0.87;;;0.73;;
2408;SDS011;8463;48.094;7.970;2023-04-25T14:17:04;1.93;;;1.27;;
2408;SDS011;8463;48.094;7.970;2023-04-25T14:19:31;1.13;;;1.03;;
2408;SDS011;8463;48.094;7.970;2023-04-25T14:21:57;1.00;;;0.90;;
2408;SDS011;8463;48.094;7.970;2023-04-25T14:24:23;2.03;;;0.90;;
2408;SDS011;8463;48.094;7.970;2023-04-25T14:26:51;1.17;;;1.03;;
2408;SDS011;8463;48.094;7.970;2023-04-25T14:29:16;1.00;;;0.80;;
2408;SDS011;8463;48.094;7.970;2023-04-25T14:31:42;1.17;;;0.97;;
2408;SDS011;8463;48.094;7.970;2023-04-25T14:34:08;1.00;;;0.80;;
2408;SDS011;8463;48.094;7.970;2023-04-25T14:36:35;3.27;;;0.80;;
2408;SDS011;8463;48.094;7.970;2023-04-25T14:39:01;1.20;;;1.10;;
2408;SDS011;8463;48.094;7.970;2023-04-25T14:41:27;2.10;;;1.27;;
2408;SDS011;8463;48.094;7.970;2023-04-25T14:43:53;1.63;;;1.17;;
2408;SDS011;8463;48.094;7.970;2023-04-25T14:46:19;1.60;;;1.50;;
2408;SDS011;8463;48.094;7.970;2023-04-25T14:48:48;2.00;;;1.30;;
2408;SDS011;8463;48.094;7.970;2023-04-25T14:51:14;1.20;;;0.87;;
2408;SDS011;8463;48.094;7.970;2023-04-25T14:53:40;1.43;;;0.87;;
2408;SDS011;8463;48.094;7.970;2023-04-25T14:56:06;1.30;;;1.20;;
2408;SDS011;8463;48.094;7.970;2023-04-25T14:58:32;0.73;;;0.73;;
2408;SDS011;8463;48.094;7.970;2023-04-25T15:00:59;1.33;;;1.23;;
2408;SDS011;8463;48.094;7.970;2023-04-25T15:03:24;0.87;;;0.87;;
2408;SDS011;8463;48.094;7.970;2023-04-25T15:05:50;1.47;;;1.23;;
2408;SDS011;8463;48.094;7.970;2023-04-25T15:08:17;1.40;;;1.00;;
2408;SDS011;8463;48.094;7.970;2023-04-25T15:10:43;1.10;;;1.00;;
2408;SDS011;8463;48.094;7.970;2023-04-25T15:13:09;1.43;;;1.33;;
2408;SDS011;8463;48.094;7.970;2023-04-25T15:15:35;2.03;;;1.47;;
2408;SDS011;8463;48.094;7.970;2023-04-25T15:18:01;1.43;;;1.27;;
2408;SDS011;8463;48.094;7.970;2023-04-25T15:20:27;1.70;;;1.10;;
2408;SDS011;8463;48.094;7.970;2023-04-25T15:22:53;0.80;;;0.73;;
2408;SDS011;8463;48.094;7.970;2023-04-25T15:25:20;1.50;;;1.10;;
2408;SDS011;8463;48.094;7.970;2023-04-25T15:27:48;1.90;;;1.17;;
2408;SDS011;8463;48.094;7.970;2023-04-25T15:30:14;1.50;;;1.13;;
2408;SDS011;8463;48.094;7.970;2023-04-25T15:32:44;1.67;;;1.57;;